Time;durP1;ratioP1;P1;durP2;ratioP2;P2;SDS_P1;SDS_P2;PMS_P1;PMS_P2;Temp;Humidity;BMP_temperature;BMP_pressure;BME280_temperature;BME280_humidity;BME280_pressure;Samples;Min_cycle;Max_cycle;Signal;HPM_P1;HPM_P2
2023/06/30 00:02:03;;;;;;;;;;;;;;;20.83;68.79;92603.00;2055406;69;20707;-74
2023/06/30 00:04:32;;;;;;;;;;;;;;;20.84;69.33;92590.88;2055829;70;20057;-73
2023/06/30 00:06:57;;;;;;;;;;;;;;;20.78;69.24;92593.63;2055841;69;20099;-75
2023/06/30 00:09:23;;;;;;;;;;;;;;;20.72;69.65;92585.63;2055727;70;20056;-74
2023/06/30 00:15:18;;;;;;;;;;;;;;;20.76;69.85;92582.88;2055726;69;20430;-74
2023/06/30 00:17:43;;;;;;;;;;;;;;;20.67;70.63;92586.97;2055572;69;20478;-74
2023/06/30 00:20:09;;;;;;;;;;;;;;;20.76;69.46;92591.44;2055687;70;20058;-73
2023/06/30 00:22:35;;;;;;;;;;;;;;;20.73;69.31;92587.09;2068518;69;20110;-74
2023/06/30 00:25:01;;;;;;;;;;;;;;;20.59;70.73;92583.91;2068716;69;20161;-74
2023/06/30 00:27:27;;;;;;;;;;;;;;;20.55;71.08;92586.69;2055568;70;20411;-73
2023/06/30 00:29:52;;;;;;;;;;;;;;;20.55;70.80;92587.41;2055708;69;20053;-74
2023/06/30 00:32:19;;;;;;;;;;;;;;;20.67;69.86;92584.09;2055631;70;20506;-74
2023/06/30 00:34:45;;;;;;;;;;;;;;;20.56;71.22;92596.72;2068700;69;20433;-74
2023/06/30 00:37:10;;;;;;;;;;;;;;;20.54;71.64;92588.09;2068725;69;20057;-74
2023/06/30 00:39:35;;;;;;;;;;;;;;;20.53;71.05;92580.94;2068737;69;20054;-75
2023/06/30 00:42:02;;;;;;;;;;;;;;;20.66;70.81;92576.19;2055739;69;20074;-74
2023/06/30 00:44:27;;;;;;;;;;;;;;;20.62;71.14;92576.09;2068599;69;20078;-75
2023/06/30 00:46:52;;;;;;;;;;;;;;;20.56;71.40;92573.84;2055237;70;20097;-75
2023/06/30 00:49:18;;;;;;;;;;;;;;;20.53;71.40;92564.50;2056048;69;20482;-75
2023/06/30 00:55:12;;;;;;;;;;;;;;;20.62;71.17;92558.94;2049119;70;20061;-75
2023/06/30 00:57:38;;;;;;;;;;;;;;;20.67;69.55;92557.66;2048205;70;20051;-77
2023/06/30 01:00:10;;;;;;;;;;;;;;;20.56;71.55;92550.97;2048579;70;20054;-75
2023/06/30 01:02:43;;;;;;;;;;;;;;;20.49;72.19;92549.41;2048389;70;20059;-75
2023/06/30 01:05:17;;;;;;;;;;;;;;;20.35;73.09;92544.06;2049098;69;20518;-75
2023/06/30 01:08:02;;;;;;;;;;;;;;;20.43;72.31;92541.38;2048986;70;20059;-75
2023/06/30 01:10:30;;;;;;;;;;;;;;;20.42;72.82;92539.91;2048999;69;20116;-74
2023/06/30 01:12:56;;;;;;;;;;;;;;;20.40;71.87;92534.16;2047960;70;20061;-74
2023/06/30 01:15:22;;;;;;;;;;;;;;;20.39;72.78;92531.97;2048702;70;20071;-74
2023/06/30 01:17:51;;;;;;;;;;;;;;;20.41;72.30;92534.91;2048365;70;20156;-74
2023/06/30 01:20:19;;;;;;;;;;;;;;;20.21;73.13;92535.19;2048978;70;20051;-73
2023/06/30 01:22:44;;;;;;;;;;;;;;;20.34;72.97;92539.72;2048370;70;20078;-74
2023/06/30 01:25:11;;;;;;;;;;;;;;;20.38;73.08;92536.25;2048543;70;20201;-74
2023/06/30 01:27:40;;;;;;;;;;;;;;;20.39;71.65;92535.59;2049056;70;20062;-74
2023/06/30 01:30:07;;;;;;;;;;;;;;;20.31;72.90;92538.25;2048532;70;20152;-74
2023/06/30 01:32:33;;;;;;;;;;;;;;;20.16;72.85;92540.06;2048380;70;20063;-74
2023/06/30 01:34:58;;;;;;;;;;;;;;;19.52;76.33;92539.94;2048491;70;20051;-74
2023/06/30 01:37:24;;;;;;;;;;;;;;;19.89;73.55;92541.59;2048689;70;20392;-75
2023/06/30 01:39:49;;;;;;;;;;;;;;;19.73;73.91;92541.19;2048661;70;20047;-74
2023/06/30 01:42:16;;;;;;;;;;;;;;;19.98;72.45;92531.09;2048409;70;20047;-73
2023/06/30 01:44:42;;;;;;;;;;;;;;;19.98;72.50;92533.94;2045583;70;20090;-74
2023/06/30 01:47:09;;;;;;;;;;;;;;;20.14;71.94;92531.44;2048811;70;20080;-75
2023/06/30 01:49:34;;;;;;;;;;;;;;;20.17;71.97;92529.38;2063410;69;20088;-74
2023/06/30 01:52:01;;;;;;;;;;;;;;;20.14;72.58;92531.44;2068318;69;20487;-74
2023/06/30 01:57:55;;;;;;;;;;;;;;;20.09;72.43;92532.03;2071670;69;20423;-74
2023/06/30 02:00:20;;;;;;;;;;;;;;;19.95;72.69;92521.00;2068322;69;20485;-74
2023/06/30 02:02:46;;;;;;;;;;;;;;;19.96;73.24;92520.31;2068304;69;20059;-74
2023/06/30 02:05:12;;;;;;;;;;;;;;;20.11;72.02;92527.09;2071794;69;20083;-75
2023/06/30 02:07:38;;;;;;;;;;;;;;;20.05;73.00;92527.66;2071669;69;20084;-75
2023/06/30 02:10:06;;;;;;;;;;;;;;;19.98;73.56;92533.94;2071225;69;20424;-75
2023/06/30 02:12:31;;;;;;;;;;;;;;;19.95;72.23;92530.31;2071240;69;20497;-74
2023/06/30 02:14:57;;;;;;;;;;;;;;;19.94;72.59;92534.56;2071223;69;20051;-73
2023/06/30 02:17:26;;;;;;;;;;;;;;;20.06;71.44;92548.41;2071184;69;20037;-73
2023/06/30 02:19:52;;;;;;;;;;;;;;;19.96;72.28;92540.31;2071704;69;20084;-74
2023/06/30 02:22:18;;;;;;;;;;;;;;;20.12;70.86;92528.56;2071775;69;20115;-73
2023/06/30 02:24:44;;;;;;;;;;;;;;;20.04;70.25;92529.09;2071484;69;20065;-73
2023/06/30 02:27:10;;;;;;;;;;;;;;;19.58;73.86;92525.09;2071131;69;20503;-74
2023/06/30 02:29:35;;;;;;;;;;;;;;;19.87;71.79;92523.66;2071919;69;20052;-75
2023/06/30 02:32:01;;;;;;;;;;;;;;;19.88;72.16;92522.97;2071782;69;20069;-75
2023/06/30 02:34:26;;;;;;;;;;;;;;;19.84;73.07;92522.16;2071726;69;20051;-75
2023/06/30 02:36:52;;;;;;;;;;;;;;;19.79;73.88;92512.78;2071747;69;20092;-75
2023/06/30 02:39:18;;;;;;;;;;;;;;;19.77;73.75;92507.75;2071366;69;20440;-76
2023/06/30 02:41:44;;;;;;;;;;;;;;;19.83;73.20;92510.00;2071241;69;20052;-76
2023/06/30 02:44:12;;;;;;;;;;;;;;;19.85;72.60;92495.06;2071342;69;20045;-75
2023/06/30 02:46:37;;;;;;;;;;;;;;;19.79;73.09;92487.06;2071201;69;20164;-75
2023/06/30 02:49:03;;;;;;;;;;;;;;;19.74;73.97;92494.81;2058068;69;20179;-76
2023/06/30 02:51:28;;;;;;;;;;;;;;;19.72;74.01;92483.34;2048409;70;20486;-76
2023/06/30 02:53:55;;;;;;;;;;;;;;;19.67;74.52;92486.81;2045731;70;20578;-75
2023/06/30 02:56:22;;;;;;;;;;;;;;;19.64;74.69;92477.44;2048457;70;20051;-75
2023/06/30 02:58:48;;;;;;;;;;;;;;;19.74;72.88;92479.81;2048432;70;20116;-75
2023/06/30 03:01:13;;;;;;;;;;;;;;;19.74;73.55;92476.97;2049168;70;20201;-76
2023/06/30 03:03:42;;;;;;;;;;;;;;;19.77;72.88;92479.19;2045563;70;20055;-75
2023/06/30 03:06:08;;;;;;;;;;;;;;;19.65;73.32;92469.59;2045518;70;20058;-75
2023/06/30 03:08:36;;;;;;;;;;;;;;;19.77;71.49;92476.34;2048191;70;20498;-76
2023/06/30 03:11:01;;;;;;;;;;;;;;;19.75;72.55;92467.72;2048253;70;20533;-76
2023/06/30 03:13:27;;;;;;;;;;;;;;;19.60;73.68;92473.75;2048581;70;20418;-74
2023/06/30 03:15:53;;;;;;;;;;;;;;;19.50;75.00;92472.09;2045566;70;20115;-77
2023/06/30 03:21:47;;;;;;;;;;;;;;;19.55;74.57;92470.78;2048799;70;20179;-77
2023/06/30 03:24:12;;;;;;;;;;;;;;;19.55;74.24;92476.50;2048299;70;20181;-74
2023/06/30 03:26:38;;;;;;;;;;;;;;;19.58;74.40;92468.00;2045242;70;20675;-74
2023/06/30 03:29:12;;;;;;;;;;;;;;;19.54;74.81;92480.75;2048211;70;20071;-75
2023/06/30 03:31:37;;;;;;;;;;;;;;;19.54;74.96;92485.75;2048176;70;20066;-75
2023/06/30 03:34:03;;;;;;;;;;;;;;;19.53;75.25;92487.16;2048665;70;20055;-75
2023/06/30 03:36:29;;;;;;;;;;;;;;;19.44;75.46;92485.50;2048594;70;20055;-75
2023/06/30 03:38:54;;;;;;;;;;;;;;;19.56;74.62;92491.50;2048855;70;20058;-75
2023/06/30 03:41:20;;;;;;;;;;;;;;;19.57;74.54;92490.13;2046120;70;20043;-74
2023/06/30 03:43:45;;;;;;;;;;;;;;;19.46;75.39;92486.25;2049591;70;20108;-74
2023/06/30 03:46:12;;;;;;;;;;;;;;;19.59;74.55;92472.28;2049455;70;20108;-74
2023/06/30 03:48:37;;;;;;;;;;;;;;;19.60;73.76;92465.94;2051792;70;20046;-74
2023/06/30 03:51:02;;;;;;;;;;;;;;;19.63;72.97;92478.84;2055971;70;20136;-75
2023/06/30 03:53:28;;;;;;;;;;;;;;;19.58;73.65;92476.56;2068980;69;20050;-74
2023/06/30 03:55:53;;;;;;;;;;;;;;;19.57;74.31;92466.56;2068964;69;20068;-75
2023/06/30 03:58:19;;;;;;;;;;;;;;;19.54;73.53;92477.19;2068918;69;20054;-75
2023/06/30 04:00:44;;;;;;;;;;;;;;;19.57;74.71;92469.41;2055652;69;20065;-74
2023/06/30 04:03:10;;;;;;;;;;;;;;;19.47;75.50;92470.63;2055806;69;20046;-74
2023/06/30 04:05:35;;;;;;;;;;;;;;;19.44;74.02;92457.69;2068940;69;20434;-76
2023/06/30 04:08:01;;;;;;;;;;;;;;;19.60;73.47;92459.47;2055900;70;20214;-75
2023/06/30 04:10:26;;;;;;;;;;;;;;;19.50;75.61;92463.53;2068967;69;20490;-74
2023/06/30 04:12:52;;;;;;;;;;;;;;;19.43;76.30;92461.22;2056018;69;20047;-75
2023/06/30 04:15:17;;;;;;;;;;;;;;;19.39;76.14;92466.84;2056059;70;20061;-75
2023/06/30 04:17:43;;;;;;;;;;;;;;;19.46;75.98;92457.00;2055527;70;20047;-75
2023/06/30 04:20:09;;;;;;;;;;;;;;;19.41;76.50;92461.16;2056017;69;20137;-74
2023/06/30 04:22:37;;;;;;;;;;;;;;;19.43;76.08;92464.81;2055901;70;20070;-75
2023/06/30 04:25:04;;;;;;;;;;;;;;;19.41;74.61;92470.44;2055889;70;20038;-75
2023/06/30 04:27:29;;;;;;;;;;;;;;;19.28;74.66;92474.41;2055664;70;20145;-75
2023/06/30 04:29:55;;;;;;;;;;;;;;;19.30;76.28;92475.19;2068899;69;20149;-76
2023/06/30 04:32:20;;;;;;;;;;;;;;;19.38;74.54;92465.38;2055736;70;20107;-76
2023/06/30 04:34:45;;;;;;;;;;;;;;;19.41;74.84;92458.31;2055821;70;20145;-75
2023/06/30 04:37:11;;;;;;;;;;;;;;;19.39;73.22;92469.69;2055982;70;20521;-75
2023/06/30 04:39:36;;;;;;;;;;;;;;;19.37;72.46;92472.47;2055770;70;20070;-75
2023/06/30 04:42:03;;;;;;;;;;;;;;;19.06;76.45;92468.88;2055953;70;20479;-75
2023/06/30 04:44:29;;;;;;;;;;;;;;;18.98;76.64;92469.38;2055977;69;20049;-75
2023/06/30 04:46:55;;;;;;;;;;;;;;;19.10;76.04;92474.66;2055382;70;20058;-75
2023/06/30 04:49:21;;;;;;;;;;;;;;;19.03;76.66;92481.63;2055663;70;20505;-76
2023/06/30 04:51:46;;;;;;;;;;;;;;;19.30;75.82;92486.59;2055793;70;20050;-75
2023/06/30 04:54:11;;;;;;;;;;;;;;;19.47;75.42;92476.31;2055808;70;20505;-75
2023/06/30 04:56:37;;;;;;;;;;;;;;;19.43;75.91;92467.66;2068960;69;20478;-76
2023/06/30 04:59:02;;;;;;;;;;;;;;;19.44;74.55;92460.53;2055934;70;20506;-75
2023/06/30 05:01:28;;;;;;;;;;;;;;;19.08;75.74;92468.91;2068812;69;20057;-76
2023/06/30 05:03:54;;;;;;;;;;;;;;;18.82;78.00;92468.22;2055674;69;20509;-77
2023/06/30 05:06:19;;;;;;;;;;;;;;;19.30;75.04;92471.63;2055758;70;20046;-77
2023/06/30 05:08:46;;;;;;;;;;;;;;;19.15;77.63;92464.09;2055665;69;20050;-77
2023/06/30 05:11:11;;;;;;;;;;;;;;;19.25;77.15;92470.06;2055803;70;20479;-75
2023/06/30 05:13:37;;;;;;;;;;;;;;;19.34;75.44;92456.72;2055543;70;20077;-76
2023/06/30 05:16:02;;;;;;;;;;;;;;;19.44;74.46;92457.69;2055741;69;20534;-75
2023/06/30 05:18:28;;;;;;;;;;;;;;;19.09;77.04;92463.94;2055542;70;20049;-75
2023/06/30 05:20:53;;;;;;;;;;;;;;;19.29;76.58;92461.59;2068551;69;20097;-75
2023/06/30 05:23:19;;;;;;;;;;;;;;;19.30;77.00;92469.47;2055648;70;20086;-75
2023/06/30 05:25:44;;;;;;;;;;;;;;;19.41;75.99;92470.44;2055688;69;20421;-77
2023/06/30 05:28:09;;;;;;;;;;;;;;;19.51;75.35;92467.84;2068594;69;20401;-77
2023/06/30 05:30:35;;;;;;;;;;;;;;;19.43;76.59;92466.94;2055730;70;20153;-77
2023/06/30 05:33:00;;;;;;;;;;;;;;;19.48;76.48;92465.63;2055700;70;20054;-77
2023/06/30 05:35:26;;;;;;;;;;;;;;;19.37;76.72;92464.63;2068723;69;20449;-77
2023/06/30 05:37:51;;;;;;;;;;;;;;;19.47;76.48;92473.47;2068613;69;20153;-77
2023/06/30 05:40:16;;;;;;;;;;;;;;;19.01;77.98;92465.19;2055588;70;20051;-77
2023/06/30 05:42:42;;;;;;;;;;;;;;;19.16;77.19;92465.56;2055314;70;20046;-76
2023/06/30 05:45:07;;;;;;;;;;;;;;;19.35;76.53;92461.75;2055691;70;20061;-75
2023/06/30 05:47:33;;;;;;;;;;;;;;;19.40;76.70;92463.28;2055546;70;20042;-75
2023/06/30 05:49:58;;;;;;;;;;;;;;;19.48;76.74;92462.78;2068603;69;20089;-76
2023/06/30 05:52:24;;;;;;;;;;;;;;;19.40;77.29;92459.72;2055771;70;20087;-76
2023/06/30 05:54:50;;;;;;;;;;;;;;;19.45;77.05;92462.00;2055598;70;20045;-75
2023/06/30 05:57:16;;;;;;;;;;;;;;;19.49;76.31;92467.06;2068674;69;20094;-76
2023/06/30 05:59:41;;;;;;;;;;;;;;;19.47;76.27;92464.16;2055568;70;20062;-77
2023/06/30 06:02:06;;;;;;;;;;;;;;;19.41;77.42;92461.16;2055475;69;20172;-77
2023/06/30 06:04:32;;;;;;;;;;;;;;;19.50;77.47;92454.25;2068548;69;20199;-77
2023/06/30 06:07:01;;;;;;;;;;;;;;;19.61;76.67;92461.69;2055175;69;20055;-77
2023/06/30 06:09:27;;;;;;;;;;;;;;;19.63;76.30;92449.59;2055429;69;20057;-77
2023/06/30 06:11:52;;;;;;;;;;;;;;;19.73;74.90;92455.53;2055496;70;20054;-77
2023/06/30 06:14:19;;;;;;;;;;;;;;;19.73;74.56;92449.81;2055531;70;20449;-77
2023/06/30 06:16:45;;;;;;;;;;;;;;;19.40;76.32;92462.56;2055474;69;20058;-76
2023/06/30 06:19:11;;;;;;;;;;;;;;;19.66;73.94;92465.38;2055437;69;20152;-76
2023/06/30 06:21:37;;;;;;;;;;;;;;;19.42;76.79;92456.91;2055397;70;20058;-75
2023/06/30 06:24:03;;;;;;;;;;;;;;;19.67;76.88;92463.97;2055523;70;20054;-75
2023/06/30 06:26:28;;;;;;;;;;;;;;;19.74;76.74;92466.25;2055482;70;20062;-75
2023/06/30 06:28:54;;;;;;;;;;;;;;;19.82;73.46;92462.16;2068341;69;20054;-74
2023/06/30 06:31:19;;;;;;;;;;;;;;;19.84;73.08;92462.94;2055669;70;20047;-77
2023/06/30 06:33:44;;;;;;;;;;;;;;;19.94;72.09;92468.88;2055444;70;20054;-77
2023/06/30 06:36:10;;;;;;;;;;;;;;;20.04;73.01;92463.38;2068460;69;20134;-76
2023/06/30 06:38:36;;;;;;;;;;;;;;;20.12;73.48;92459.97;2055582;70;20054;-76
2023/06/30 06:41:01;;;;;;;;;;;;;;;19.85;71.38;92461.53;2055578;70;20467;-80
2023/06/30 06:43:27;;;;;;;;;;;;;;;19.87;73.57;92460.84;2055602;70;20094;-79
2023/06/30 06:45:53;;;;;;;;;;;;;;;20.20;73.66;92451.56;2055449;70;20099;-76
2023/06/30 06:48:22;;;;;;;;;;;;;;;20.24;73.03;92450.91;2055265;69;20054;-77
2023/06/30 06:50:57;;;;;;;;;;;;;;;20.41;72.88;92449.84;2055534;70;20061;-76
2023/06/30 06:53:27;;;;;;;;;;;;;;;20.43;74.03;92447.03;2055592;70;20192;-77
2023/06/30 06:59:21;;;;;;;;;;;;;;;20.50;74.72;92456.50;2055657;69;20076;-78
2023/06/30 07:01:47;;;;;;;;;;;;;;;20.56;73.86;92450.88;2055137;70;20505;-77
2023/06/30 07:04:12;;;;;;;;;;;;;;;20.72;72.70;92445.50;2055506;69;20046;-78
2023/06/30 07:06:37;;;;;;;;;;;;;;;20.90;72.10;92447.97;2055644;70;20097;-81
2023/06/30 07:09:03;;;;;;;;;;;;;;;21.10;72.99;92444.03;2055470;70;20061;-78
2023/06/30 07:11:28;;;;;;;;;;;;;;;21.25;72.76;92449.28;2055243;70;20050;-78
2023/06/30 07:13:54;;;;;;;;;;;;;;;21.24;71.54;92456.44;2055174;69;20046;-77
2023/06/30 07:16:21;;;;;;;;;;;;;;;21.12;67.93;92459.09;2068438;69;20051;-77
2023/06/30 07:18:46;;;;;;;;;;;;;;;21.17;69.17;92446.31;2055367;69;20145;-77
2023/06/30 07:21:12;;;;;;;;;;;;;;;21.53;70.77;92451.22;2055405;70;20248;-77
2023/06/30 07:23:37;;;;;;;;;;;;;;;21.29;71.97;92446.50;2055489;70;20506;-77
2023/06/30 07:26:02;;;;;;;;;;;;;;;21.74;69.95;92438.66;2055603;70;20054;-77
2023/06/30 07:28:28;;;;;;;;;;;;;;;21.79;67.63;92440.16;2055576;70;20054;-77
2023/06/30 07:30:53;;;;;;;;;;;;;;;21.81;66.54;92440.22;2055294;70;20054;-77
2023/06/30 07:33:19;;;;;;;;;;;;;;;21.74;65.43;92432.22;2055247;70;20054;-77
2023/06/30 07:35:45;;;;;;;;;;;;;;;21.65;67.89;92442.81;2055526;70;20105;-76
2023/06/30 07:38:11;;;;;;;;;;;;;;;21.67;70.81;92437.13;2055513;70;20093;-76
2023/06/30 07:40:36;;;;;;;;;;;;;;;21.91;69.50;92431.03;2068398;69;20105;-76
2023/06/30 07:43:02;;;;;;;;;;;;;;;21.87;68.55;92422.38;2068399;69;20066;-76
2023/06/30 07:45:27;;;;;;;;;;;;;;;21.81;69.95;92425.16;2055487;70;20121;-76
2023/06/30 07:47:53;;;;;;;;;;;;;;;21.93;69.27;92418.88;2055155;70;20047;-75
2023/06/30 07:50:18;;;;;;;;;;;;;;;21.90;70.41;92418.13;2055535;70;20137;-76
2023/06/30 07:52:50;;;;;;;;;;;;;;;22.05;70.75;92410.44;2067720;69;20050;-76
2023/06/30 07:55:16;;;;;;;;;;;;;;;22.35;69.48;92421.59;2055210;69;20141;-76
2023/06/30 07:57:42;;;;;;;;;;;;;;;22.37;69.54;92426.66;2055189;69;20137;-76
2023/06/30 08:00:09;;;;;;;;;;;;;;;22.69;68.94;92423.47;2055277;70;20046;-76
2023/06/30 08:02:38;;;;;;;;;;;;;;;22.68;69.02;92411.25;2055201;69;20098;-76
2023/06/30 08:05:04;;;;;;;;;;;;;;;22.86;69.19;92419.31;2055333;70;20513;-75
2023/06/30 08:07:29;;;;;;;;;;;;;;;22.95;66.86;92423.03;2068339;69;20057;-76
2023/06/30 08:09:55;;;;;;;;;;;;;;;23.13;67.67;92420.34;2055323;70;20414;-75
2023/06/30 08:12:20;;;;;;;;;;;;;;;23.31;67.02;92426.25;2055386;70;20145;-74
2023/06/30 08:14:48;;;;;;;;;;;;;;;23.39;66.58;92425.63;2055222;70;20062;-75
2023/06/30 08:17:14;;;;;;;;;;;;;;;23.44;67.32;92415.59;2055256;70;20100;-77
2023/06/30 08:19:41;;;;;;;;;;;;;;;23.54;66.73;92421.44;2055313;70;20050;-75
2023/06/30 08:22:07;;;;;;;;;;;;;;;23.30;65.85;92424.81;2055281;70;20081;-75
2023/06/30 08:24:32;;;;;;;;;;;;;;;23.74;62.93;92417.31;2056138;70;20110;-74
2023/06/30 08:26:58;;;;;;;;;;;;;;;24.03;60.95;92412.47;2068810;69;20077;-76
2023/06/30 08:32:54;;;;;;;;;;;;;;;23.29;61.04;92397.53;2055749;69;20065;-76
2023/06/30 08:35:19;;;;;;;;;;;;;;;23.45;60.21;92405.56;2055996;70;20111;-75
2023/06/30 08:41:14;;;;;;;;;;;;;;;23.80;57.24;92402.97;2055940;69;20152;-76
2023/06/30 08:43:41;;;;;;;;;;;;;;;23.66;57.19;92409.34;2055815;69;20137;-81
2023/06/30 08:46:07;;;;;;;;;;;;;;;23.87;55.86;92409.47;2068724;69;20050;-77
2023/06/30 08:48:32;;;;;;;;;;;;;;;24.11;55.78;92408.94;2055645;70;20049;-76
2023/06/30 08:50:58;;;;;;;;;;;;;;;23.25;57.58;92411.84;2055819;70;20046;-75
2023/06/30 08:53:26;;;;;;;;;;;;;;;23.36;57.56;92406.91;2055829;70;20054;-76
2023/06/30 08:55:53;;;;;;;;;;;;;;;24.13;57.06;92408.94;2055793;70;20474;-75
2023/06/30 08:58:19;;;;;;;;;;;;;;;24.21;58.66;92409.69;2056075;70;20063;-77
2023/06/30 09:00:44;;;;;;;;;;;;;;;23.80;58.45;92409.44;2055802;70;20125;-77
2023/06/30 09:03:10;;;;;;;;;;;;;;;24.07;57.06;92406.75;2055498;70;20499;-77
2023/06/30 09:05:39;;;;;;;;;;;;;;;24.22;55.47;92413.28;2055686;70;20133;-77
2023/06/30 09:08:10;;;;;;;;;;;;;;;24.30;55.58;92411.19;2055791;70;20141;-77
2023/06/30 09:10:37;;;;;;;;;;;;;;;24.61;55.55;92408.47;2055833;69;20046;-75
2023/06/30 09:13:04;;;;;;;;;;;;;;;24.20;56.05;92398.91;2055722;70;20171;-75
2023/06/30 09:15:30;;;;;;;;;;;;;;;23.66;56.28;92400.72;2068652;69;20088;-75
2023/06/30 09:17:55;;;;;;;;;;;;;;;23.57;57.53;92399.19;2068592;69;20050;-77
2023/06/30 09:20:21;;;;;;;;;;;;;;;23.48;56.49;92392.66;2055716;70;20078;-77
2023/06/30 09:22:46;;;;;;;;;;;;;;;23.24;54.88;92386.72;2055689;70;20053;-77
2023/06/30 09:25:32;;;;;;;;;;;;;;;23.59;55.18;92384.81;2055849;69;20066;-77
2023/06/30 09:27:58;;;;;;;;;;;;;;;24.27;55.65;92383.13;2055908;69;20097;-77
2023/06/30 09:30:36;;;;;;;;;;;;;;;24.37;59.93;92386.06;2055717;69;20108;-77
2023/06/30 09:33:02;;;;;;;;;;;;;;;24.53;58.84;92380.38;2055582;70;20165;-77
2023/06/30 09:35:41;;;;;;;;;;;;;;;24.62;61.32;92372.50;2055062;70;20149;-76
2023/06/30 09:38:13;;;;;;;;;;;;;;;24.75;59.50;92370.38;2055536;70;20058;-77
2023/06/30 09:40:42;;;;;;;;;;;;;;;24.41;62.91;92365.94;2068638;69;20043;-76
2023/06/30 09:43:08;;;;;;;;;;;;;;;24.44;63.08;92358.06;2055630;70;20043;-76
2023/06/30 09:45:34;;;;;;;;;;;;;;;24.34;60.49;92358.72;2055669;70;20138;-77
2023/06/30 09:47:59;;;;;;;;;;;;;;;24.30;60.45;92364.44;2055371;69;20060;-77
2023/06/30 09:50:25;;;;;;;;;;;;;;;24.64;61.00;92360.25;2055669;70;20054;-77
2023/06/30 09:52:51;;;;;;;;;;;;;;;24.64;60.96;92358.09;2055743;70;20058;-76
2023/06/30 09:55:16;;;;;;;;;;;;;;;24.51;62.78;92351.63;2068673;69;20510;-76
2023/06/30 09:57:43;;;;;;;;;;;;;;;24.68;62.72;92354.53;2055635;69;20123;-76
2023/06/30 10:00:19;;;;;;;;;;;;;;;25.09;61.92;92355.34;2055428;69;20050;-76
2023/06/30 10:02:45;;;;;;;;;;;;;;;24.94;62.99;92360.34;2055481;69;20061;-76
2023/06/30 10:05:10;;;;;;;;;;;;;;;24.98;61.80;92354.59;2055401;69;20046;-76
2023/06/30 10:07:40;;;;;;;;;;;;;;;25.33;60.33;92352.47;2055504;70;20038;-76
2023/06/30 10:10:07;;;;;;;;;;;;;;;25.58;60.73;92361.13;2065739;69;20145;-75
2023/06/30 10:16:03;;;;;;;;;;;;;;;26.02;58.71;92353.88;2055542;69;20053;-76
2023/06/30 10:18:29;;;;;;;;;;;;;;;26.14;59.30;92359.63;2068421;69;20051;-76
2023/06/30 10:20:55;;;;;;;;;;;;;;;26.06;56.21;92348.81;2055628;70;20433;-76
2023/06/30 10:23:21;;;;;;;;;;;;;;;26.36;54.56;92348.03;2055638;69;20058;-76
2023/06/30 10:25:47;;;;;;;;;;;;;;;27.52;52.69;92349.53;2055692;70;20066;-76
2023/06/30 10:28:13;;;;;;;;;;;;;;;27.70;51.02;92347.97;2055522;70;20510;-75
2023/06/30 10:30:39;;;;;;;;;;;;;;;26.15;49.50;92340.88;2055603;70;20046;-75
2023/06/30 10:33:04;;;;;;;;;;;;;;;26.96;49.56;92339.81;2055624;69;20061;-75
2023/06/30 10:35:30;;;;;;;;;;;;;;;26.87;48.55;92338.41;2055607;70;20054;-77
2023/06/30 10:37:56;;;;;;;;;;;;;;;26.71;48.60;92330.59;2055601;70;20058;-77
2023/06/30 10:40:28;;;;;;;;;;;;;;;27.96;47.85;92327.50;2055618;70;20505;-77
2023/06/30 10:42:54;;;;;;;;;;;;;;;28.48;45.78;92325.47;2055560;70;20050;-77
2023/06/30 10:45:20;;;;;;;;;;;;;;;27.25;46.92;92325.91;2055378;70;20054;-77
2023/06/30 10:47:50;;;;;;;;;;;;;;;26.82;47.90;92329.06;2055327;69;20118;-77
2023/06/30 10:50:16;;;;;;;;;;;;;;;26.65;47.96;92324.09;2055358;70;20052;-76
2023/06/30 10:52:48;;;;;;;;;;;;;;;26.15;48.29;92325.72;2055481;70;20145;-77
2023/06/30 10:55:14;;;;;;;;;;;;;;;26.43;48.76;92319.13;2055540;70;20058;-77
2023/06/30 10:57:39;;;;;;;;;;;;;;;26.46;49.73;92321.31;2055623;70;20042;-77
2023/06/30 11:00:06;;;;;;;;;;;;;;;26.69;48.67;92319.03;2068630;69;20098;-78
2023/06/30 11:02:32;;;;;;;;;;;;;;;27.06;47.08;92319.53;2055499;69;20050;-78
2023/06/30 11:05:19;;;;;;;;;;;;;;;30.09;43.30;92317.28;2055693;69;20046;-78
2023/06/30 11:07:52;;;;;;;;;;;;;;;31.57;39.42;92321.50;2065630;69;20502;-78
2023/06/30 11:10:28;;;;;;;;;;;;;;;28.94;43.42;92311.13;2055697;70;20141;-77
2023/06/30 11:12:54;;;;;;;;;;;;;;;29.76;41.20;92313.53;2055544;70;20057;-77
2023/06/30 11:15:29;;;;;;;;;;;;;;;29.57;42.38;92295.72;2055832;70;20050;-77
2023/06/30 11:17:54;;;;;;;;;;;;;;;28.99;43.57;92290.06;2068546;69;20441;-77
2023/06/30 11:20:26;;;;;;;;;;;;;;;27.65;45.12;92300.31;2055574;70;20059;-77
2023/06/30 11:22:55;;;;;;;;;;;;;;;28.56;44.36;92296.44;2055541;70;20043;-77
2023/06/30 11:25:21;;;;;;;;;;;;;;;28.59;44.97;92297.84;2055530;70;20050;-78
2023/06/30 11:27:46;;;;;;;;;;;;;;;28.18;44.23;92296.88;2055471;70;20430;-75
2023/06/30 11:30:18;;;;;;;;;;;;;;;28.27;46.61;92293.16;2055570;70;20438;-77
2023/06/30 11:32:44;;;;;;;;;;;;;;;28.14;47.14;92288.25;2055536;69;20061;-77
2023/06/30 11:35:11;;;;;;;;;;;;;;;28.05;49.33;92287.63;2055519;70;20050;-77
2023/06/30 11:37:36;;;;;;;;;;;;;;;28.02;48.78;92283.31;2055514;70;20056;-77
2023/06/30 11:40:03;;;;;;;;;;;;;;;27.92;49.60;92283.44;2055617;70;20166;-77
2023/06/30 11:46:00;;;;;;;;;;;;;;;27.06;51.40;92281.97;2055502;70;20425;-77
2023/06/30 11:48:41;;;;;;;;;;;;;;;27.00;51.24;92273.34;2055380;69;20042;-77
2023/06/30 11:51:06;;;;;;;;;;;;;;;27.01;51.98;92271.91;2055440;70;20226;-77
2023/06/30 11:53:32;;;;;;;;;;;;;;;27.16;52.47;92268.94;2055432;70;20164;-75
2023/06/30 11:55:57;;;;;;;;;;;;;;;27.15;51.57;92268.22;2055405;70;20050;-75
2023/06/30 11:58:23;;;;;;;;;;;;;;;27.36;53.94;92263.00;2055836;69;20419;-75
2023/06/30 12:00:48;;;;;;;;;;;;;;;27.46;52.49;92280.22;2055942;70;20054;-75
2023/06/30 12:03:14;;;;;;;;;;;;;;;27.51;50.95;92275.13;2055869;69;20053;-75
2023/06/30 12:05:41;;;;;;;;;;;;;;;27.30;49.73;92271.69;2068931;69;20050;-75
2023/06/30 12:08:10;;;;;;;;;;;;;;;28.17;50.64;92278.78;2056102;70;20052;-77
2023/06/30 12:10:37;;;;;;;;;;;;;;;28.60;48.32;92276.13;2055864;69;20499;-77
2023/06/30 12:13:06;;;;;;;;;;;;;;;27.46;49.11;92262.91;2055933;70;20046;-77
2023/06/30 12:15:31;;;;;;;;;;;;;;;27.50;50.04;92265.75;2055936;70;20131;-77
2023/06/30 12:17:57;;;;;;;;;;;;;;;26.66;52.49;92248.31;2055806;69;20563;-77
2023/06/30 12:20:36;;;;;;;;;;;;;;;25.77;54.25;92261.69;2055896;69;20067;-77
2023/06/30 12:23:03;;;;;;;;;;;;;;;25.84;53.03;92268.88;2055899;70;20089;-77
2023/06/30 12:25:33;;;;;;;;;;;;;;;26.13;54.68;92268.06;2068889;69;20516;-77
2023/06/30 12:28:09;;;;;;;;;;;;;;;25.91;58.80;92269.56;2055876;70;20058;-77
2023/06/30 12:30:35;;;;;;;;;;;;;;;25.89;60.34;92275.34;2068927;69;20059;-77
2023/06/30 12:33:01;;;;;;;;;;;;;;;25.68;60.89;92276.81;2055848;70;20471;-77
2023/06/30 12:35:27;;;;;;;;;;;;;;;25.76;60.64;92291.25;2068843;69;20549;-77
2023/06/30 12:37:53;;;;;;;;;;;;;;;25.76;60.08;92286.19;2055834;69;20174;-76
2023/06/30 12:40:19;;;;;;;;;;;;;;;25.53;60.48;92284.78;2068850;69;20510;-76
2023/06/30 12:42:45;;;;;;;;;;;;;;;25.57;61.26;92291.25;2055762;70;20077;-76
2023/06/30 12:45:11;;;;;;;;;;;;;;;25.79;60.26;92295.53;2055759;69;20046;-76
2023/06/30 12:47:36;;;;;;;;;;;;;;;25.42;62.15;92297.75;2055782;70;20198;-76
2023/06/30 12:50:02;;;;;;;;;;;;;;;25.78;59.79;92303.47;2055860;70;20058;-76
2023/06/30 12:52:27;;;;;;;;;;;;;;;26.01;57.79;92309.19;2055927;69;20145;-75
2023/06/30 12:54:53;;;;;;;;;;;;;;;25.95;58.27;92304.16;2055781;69;20145;-76
2023/06/30 12:57:18;;;;;;;;;;;;;;;26.00;58.84;92299.81;2055784;69;20056;-76
2023/06/30 12:59:44;;;;;;;;;;;;;;;26.17;59.56;92303.38;2055897;70;20057;-76
2023/06/30 13:02:09;;;;;;;;;;;;;;;25.94;60.98;92302.72;2055699;69;20084;-76
2023/06/30 13:04:35;;;;;;;;;;;;;;;26.04;61.44;92299.09;2055798;70;20482;-77
2023/06/30 13:07:00;;;;;;;;;;;;;;;24.30;61.01;92301.88;2068832;69;20050;-76
2023/06/30 13:09:25;;;;;;;;;;;;;;;23.72;62.32;92293.72;2055601;70;20066;-76
2023/06/30 13:11:51;;;;;;;;;;;;;;;23.40;62.67;92294.94;2055804;70;20116;-76
2023/06/30 13:14:16;;;;;;;;;;;;;;;24.75;59.19;92292.69;2055729;70;20053;-76
2023/06/30 13:16:42;;;;;;;;;;;;;;;25.25;58.29;92285.53;2055771;70;20046;-76